sensor_id;sensor_type;location;lat;lon;timestamp;pressure;altitude;pressure_sealevel;temperature;humidity
8101;BME280;4093;53.470;9.832;2023-02-16T00:01:43;102126.13;;;7.86;85.46
8101;BME280;4093;53.470;9.832;2023-02-16T00:04:17;102093.63;;;7.91;83.62
8101;BME280;4093;53.470;9.832;2023-02-16T00:06:48;102125.56;;;8.02;84.07
8101;BME280;4093;53.470;9.832;2023-02-16T00:09:16;102129.63;;;7.89;85.29
8101;BME280;4093;53.470;9.832;2023-02-16T00:11:44;102125.06;;;7.72;85.05
8101;BME280;4093;53.470;9.832;2023-02-16T00:14:32;102135.81;;;7.99;84.98
8101;BME280;4093;53.470;9.832;2023-02-16T00:17:00;102106.50;;;7.91;84.81
8101;BME280;4093;53.470;9.832;2023-02-16T00:19:30;102024.47;;;7.59;82.35
8101;BME280;4093;53.470;9.832;2023-02-16T00:22:02;102115.84;;;7.86;83.77
8101;BME280;4093;53.470;9.832;2023-02-16T00:24:30;102108.97;;;7.35;85.77
8101;BME280;4093;53.470;9.832;2023-02-16T00:26:59;102137.00;;;8.21;82.29
8101;BME280;4093;53.470;9.832;2023-02-16T00:29:29;102126.38;;;8.00;83.36
8101;BME280;4093;53.470;9.832;2023-02-16T00:31:59;102127.19;;;7.97;84.64
8101;BME280;4093;53.470;9.832;2023-02-16T00:34:30;102119.97;;;7.75;84.98
8101;BME280;4093;53.470;9.832;2023-02-16T00:37:00;102112.25;;;7.75;85.26
8101;BME280;4093;53.470;9.832;2023-02-16T00:39:29;102111.84;;;7.52;86.79
8101;BME280;4093;53.470;9.832;2023-02-16T00:41:59;102123.94;;;7.57;85.55
8101;BME280;4093;53.470;9.832;2023-02-16T00:44:33;102103.25;;;7.50;86.01
8101;BME280;4093;53.470;9.832;2023-02-16T00:47:07;102113.91;;;7.73;85.07
8101;BME280;4093;53.470;9.832;2023-02-16T00:49:37;102118.34;;;7.81;85.37
8101;BME280;4093;53.470;9.832;2023-02-16T00:52:30;102106.19;;;7.73;84.50
8101;BME280;4093;53.470;9.832;2023-02-16T00:55:01;102109.72;;;7.78;84.12
8101;BME280;4093;53.470;9.832;2023-02-16T00:57:33;102106.94;;;7.65;84.68
8101;BME280;4093;53.470;9.832;2023-02-16T01:00:05;102105.28;;;7.71;84.72
8101;BME280;4093;53.470;9.832;2023-02-16T01:02:33;102098.03;;;7.48;85.99
8101;BME280;4093;53.470;9.832;2023-02-16T01:05:01;102104.47;;;7.72;86.10
8101;BME280;4093;53.470;9.832;2023-02-16T01:07:28;102071.53;;;7.52;85.40
8101;BME280;4093;53.470;9.832;2023-02-16T01:10:16;102103.00;;;7.89;84.39
8101;BME280;4093;53.470;9.832;2023-02-16T01:13:01;102095.72;;;7.62;84.72
8101;BME280;4093;53.470;9.832;2023-02-16T01:15:30;102098.09;;;7.50;86.59
8101;BME280;4093;53.470;9.832;2023-02-16T01:17:58;102100.13;;;7.69;86.17
8101;BME280;4093;53.470;9.832;2023-02-16T01:20:26;102097.50;;;7.68;85.88
8101;BME280;4093;53.470;9.832;2023-02-16T01:22:54;102094.06;;;7.65;85.73
8101;BME280;4093;53.470;9.832;2023-02-16T01:25:23;102093.88;;;7.55;85.12
8101;BME280;4093;53.470;9.832;2023-02-16T01:27:51;102093.38;;;7.76;85.64
8101;BME280;4093;53.470;9.832;2023-02-16T01:30:20;102091.28;;;7.53;85.08
8101;BME280;4093;53.470;9.832;2023-02-16T01:32:48;102083.81;;;7.69;84.82
8101;BME280;4093;53.470;9.832;2023-02-16T01:35:18;102085.22;;;7.51;86.34
8101;BME280;4093;53.470;9.832;2023-02-16T01:37:46;102085.34;;;7.57;85.10
8101;BME280;4093;53.470;9.832;2023-02-16T01:40:22;102080.84;;;7.44;85.63
8101;BME280;4093;53.470;9.832;2023-02-16T01:42:59;102034.91;;;7.15;85.88
8101;BME280;4093;53.470;9.832;2023-02-16T01:45:32;102085.97;;;7.44;86.27
8101;BME280;4093;53.470;9.832;2023-02-16T01:48:03;102084.06;;;7.32;86.42
8101;BME280;4093;53.470;9.832;2023-02-16T01:50:40;102077.94;;;7.26;87.94
8101;BME280;4093;53.470;9.832;2023-02-16T01:53:15;102090.75;;;7.73;85.51
8101;BME280;4093;53.470;9.832;2023-02-16T01:55:46;102077.34;;;7.42;85.69
8101;BME280;4093;53.470;9.832;2023-02-16T01:58:24;102077.50;;;7.51;85.36
8101;BME280;4093;53.470;9.832;2023-02-16T02:04:22;102075.34;;;7.24;86.03
8101;BME280;4093;53.470;9.832;2023-02-16T02:07:10;102071.56;;;7.54;85.60
8101;BME280;4093;53.470;9.832;2023-02-16T02:09:44;102073.22;;;7.50;86.43
8101;BME280;4093;53.470;9.832;2023-02-16T02:12:19;102081.00;;;7.55;85.71
8101;BME280;4093;53.470;9.832;2023-02-16T02:14:51;102075.91;;;7.58;84.11
8101;BME280;4093;53.470;9.832;2023-02-16T02:17:20;102084.53;;;7.61;84.47
8101;BME280;4093;53.470;9.832;2023-02-16T02:19:55;102078.63;;;7.67;84.71
8101;BME280;4093;53.470;9.832;2023-02-16T02:32:13;102072.00;;;7.30;85.49
8101;BME280;4093;53.470;9.832;2023-02-16T02:34:55;102069.78;;;7.51;84.86
8101;BME280;4093;53.470;9.832;2023-02-16T02:37:34;102061.19;;;7.49;84.83
8101;BME280;4093;53.470;9.832;2023-02-16T02:40:10;102061.16;;;7.48;85.04
8101;BME280;4093;53.470;9.832;2023-02-16T02:42:49;102058.91;;;7.66;84.82
8101;BME280;4093;53.470;9.832;2023-02-16T02:45:25;102061.25;;;7.52;84.21
8101;BME280;4093;53.470;9.832;2023-02-16T02:47:54;102070.22;;;7.26;84.64
8101;BME280;4093;53.470;9.832;2023-02-16T02:50:47;102068.81;;;7.43;84.29
8101;BME280;4093;53.470;9.832;2023-02-16T02:53:34;102029.53;;;7.03;85.02
8101;BME280;4093;53.470;9.832;2023-02-16T02:56:04;102064.31;;;7.31;84.94
8101;BME280;4093;53.470;9.832;2023-02-16T02:58:54;102053.72;;;7.14;85.83
8101;BME280;4093;53.470;9.832;2023-02-16T03:01:45;102054.44;;;7.06;86.22
8101;BME280;4093;53.470;9.832;2023-02-16T03:04:17;102049.75;;;7.30;85.41
8101;BME280;4093;53.470;9.832;2023-02-16T03:06:50;102039.97;;;7.12;86.08
8101;BME280;4093;53.470;9.832;2023-02-16T03:09:19;102042.88;;;7.32;84.88
8101;BME280;4093;53.470;9.832;2023-02-16T03:11:48;102040.41;;;7.38;84.44
8101;BME280;4093;53.470;9.832;2023-02-16T03:14:36;102034.25;;;7.29;85.25
8101;BME280;4093;53.470;9.832;2023-02-16T03:17:10;102041.28;;;7.37;84.82
8101;BME280;4093;53.470;9.832;2023-02-16T03:19:58;102044.69;;;7.36;85.03
8101;BME280;4093;53.470;9.832;2023-02-16T03:22:45;102036.88;;;7.32;84.17
8101;BME280;4093;53.470;9.832;2023-02-16T03:25:34;102030.38;;;7.04;84.38
8101;BME280;4093;53.470;9.832;2023-02-16T03:28:22;102012.13;;;6.88;85.89
8101;BME280;4093;53.470;9.832;2023-02-16T03:31:11;102043.03;;;6.91;86.27
8101;BME280;4093;53.470;9.832;2023-02-16T03:33:44;102036.63;;;7.16;84.66
8101;BME280;4093;53.470;9.832;2023-02-16T03:36:13;102033.72;;;6.98;86.23
8101;BME280;4093;53.470;9.832;2023-02-16T03:38:41;102027.59;;;6.90;85.59
8101;BME280;4093;53.470;9.832;2023-02-16T03:41:08;102026.28;;;7.13;85.46
8101;BME280;4093;53.470;9.832;2023-02-16T03:43:36;102033.06;;;7.10;85.25
8101;BME280;4093;53.470;9.832;2023-02-16T03:46:04;102025.78;;;6.86;86.11
8101;BME280;4093;53.470;9.832;2023-02-16T03:48:32;102025.66;;;6.80;86.61
8101;BME280;4093;53.470;9.832;2023-02-16T03:51:01;102025.59;;;6.77;87.10
8101;BME280;4093;53.470;9.832;2023-02-16T03:53:29;101994.38;;;6.55;86.78
8101;BME280;4093;53.470;9.832;2023-02-16T03:55:57;102018.13;;;6.89;86.75
8101;BME280;4093;53.470;9.832;2023-02-16T03:58:25;101998.22;;;6.77;86.36
8101;BME280;4093;53.470;9.832;2023-02-16T04:00:53;101999.94;;;6.80;86.66
8101;BME280;4093;53.470;9.832;2023-02-16T04:03:21;102008.50;;;6.79;86.63
8101;BME280;4093;53.470;9.832;2023-02-16T04:05:49;102012.91;;;6.84;86.30
8101;BME280;4093;53.470;9.832;2023-02-16T04:08:18;102000.00;;;6.81;86.09
8101;BME280;4093;53.470;9.832;2023-02-16T04:10:46;102014.72;;;6.90;85.71
8101;BME280;4093;53.470;9.832;2023-02-16T04:13:13;102003.53;;;6.88;86.57
8101;BME280;4093;53.470;9.832;2023-02-16T04:15:40;101994.91;;;6.86;86.21
8101;BME280;4093;53.470;9.832;2023-02-16T04:18:08;102010.63;;;7.01;85.92
8101;BME280;4093;53.470;9.832;2023-02-16T04:20:36;102010.56;;;6.98;86.04
8101;BME280;4093;53.470;9.832;2023-02-16T04:23:03;102014.59;;;6.84;86.69
8101;BME280;4093;53.470;9.832;2023-02-16T04:25:33;102016.78;;;7.09;85.20
8101;BME280;4093;53.470;9.832;2023-02-16T04:28:01;102014.84;;;6.96;85.75
8101;BME280;4093;53.470;9.832;2023-02-16T04:30:29;102009.41;;;6.81;86.26
8101;BME280;4093;53.470;9.832;2023-02-16T04:32:57;102010.34;;;6.86;85.91
8101;BME280;4093;53.470;9.832;2023-02-16T04:35:25;102013.03;;;6.92;86.16
8101;BME280;4093;53.470;9.832;2023-02-16T04:37:53;102002.91;;;7.01;85.06
8101;BME280;4093;53.470;9.832;2023-02-16T04:40:21;102002.97;;;6.57;86.24
8101;BME280;4093;53.470;9.832;2023-02-16T04:42:50;101994.00;;;6.37;87.11
8101;BME280;4093;53.470;9.832;2023-02-16T04:45:18;101998.47;;;6.47;87.23
8101;BME280;4093;53.470;9.832;2023-02-16T04:47:46;102015.47;;;6.86;86.23
8101;BME280;4093;53.470;9.832;2023-02-16T04:50:14;102013.66;;;6.79;86.24
8101;BME280;4093;53.470;9.832;2023-02-16T04:52:42;102015.69;;;6.97;85.56
8101;BME280;4093;53.470;9.832;2023-02-16T04:55:09;102014.03;;;7.00;85.81
8101;BME280;4093;53.470;9.832;2023-02-16T04:57:37;101996.94;;;6.55;85.72
8101;BME280;4093;53.470;9.832;2023-02-16T05:00:09;101995.47;;;6.68;86.84
8101;BME280;4093;53.470;9.832;2023-02-16T05:02:38;101993.28;;;6.45;86.84
8101;BME280;4093;53.470;9.832;2023-02-16T05:05:06;101998.78;;;6.62;87.04
8101;BME280;4093;53.470;9.832;2023-02-16T05:07:34;102003.06;;;6.63;86.65
8101;BME280;4093;53.470;9.832;2023-02-16T05:10:03;102014.94;;;6.55;87.36
8101;BME280;4093;53.470;9.832;2023-02-16T05:12:31;102007.34;;;6.61;87.16
8101;BME280;4093;53.470;9.832;2023-02-16T05:15:17;102013.53;;;6.72;86.88
8101;BME280;4093;53.470;9.832;2023-02-16T05:17:45;102002.78;;;6.93;85.62
8101;BME280;4093;53.470;9.832;2023-02-16T05:20:13;101996.88;;;6.52;87.12
8101;BME280;4093;53.470;9.832;2023-02-16T05:22:41;102004.28;;;6.37;87.29
8101;BME280;4093;53.470;9.832;2023-02-16T05:25:11;102015.19;;;6.69;86.84
8101;BME280;4093;53.470;9.832;2023-02-16T05:27:39;102010.16;;;6.77;85.50
8101;BME280;4093;53.470;9.832;2023-02-16T05:30:07;102024.63;;;6.70;85.88
8101;BME280;4093;53.470;9.832;2023-02-16T05:32:36;102011.94;;;6.79;84.91
8101;BME280;4093;53.470;9.832;2023-02-16T05:35:04;102008.63;;;6.83;84.38
8101;BME280;4093;53.470;9.832;2023-02-16T05:37:32;102010.13;;;6.73;85.62
8101;BME280;4093;53.470;9.832;2023-02-16T05:40:00;101983.41;;;6.21;87.04
8101;BME280;4093;53.470;9.832;2023-02-16T05:42:28;101999.66;;;6.63;86.79
8101;BME280;4093;53.470;9.832;2023-02-16T05:44:55;102018.94;;;6.86;84.99
8101;BME280;4093;53.470;9.832;2023-02-16T05:47:23;102016.34;;;6.85;84.75
8101;BME280;4093;53.470;9.832;2023-02-16T05:49:52;102015.19;;;6.70;85.61
8101;BME280;4093;53.470;9.832;2023-02-16T05:52:20;102011.63;;;6.62;86.23
8101;BME280;4093;53.470;9.832;2023-02-16T05:54:48;102000.19;;;6.46;87.11
8101;BME280;4093;53.470;9.832;2023-02-16T05:57:15;102007.59;;;6.33;88.32
8101;BME280;4093;53.470;9.832;2023-02-16T05:59:43;102009.91;;;6.61;86.53
8101;BME280;4093;53.470;9.832;2023-02-16T06:02:11;101934.25;;;6.03;87.27
8101;BME280;4093;53.470;9.832;2023-02-16T06:04:39;101991.19;;;6.26;88.40
8101;BME280;4093;53.470;9.832;2023-02-16T06:07:08;101992.31;;;6.39;87.29
8101;BME280;4093;53.470;9.832;2023-02-16T06:09:37;101997.25;;;6.30;88.19
8101;BME280;4093;53.470;9.832;2023-02-16T06:12:05;101996.91;;;6.54;87.60
8101;BME280;4093;53.470;9.832;2023-02-16T06:14:33;101997.81;;;6.57;86.87
8101;BME280;4093;53.470;9.832;2023-02-16T06:17:01;101986.19;;;6.32;88.08
8101;BME280;4093;53.470;9.832;2023-02-16T06:19:29;101997.75;;;6.53;87.18
8101;BME280;4093;53.470;9.832;2023-02-16T06:21:56;101995.78;;;6.41;87.58
8101;BME280;4093;53.470;9.832;2023-02-16T06:24:26;101942.81;;;6.03;88.84
8101;BME280;4093;53.470;9.832;2023-02-16T06:26:54;101986.56;;;6.51;87.96
8101;BME280;4093;53.470;9.832;2023-02-16T06:29:22;101988.81;;;6.34;88.64
8101;BME280;4093;53.470;9.832;2023-02-16T06:31:50;101991.63;;;6.47;87.74
8101;BME280;4093;53.470;9.832;2023-02-16T06:34:18;101985.88;;;6.59;87.58
8101;BME280;4093;53.470;9.832;2023-02-16T06:36:46;101989.41;;;6.64;87.20
8101;BME280;4093;53.470;9.832;2023-02-16T06:39:13;102007.59;;;6.77;87.42
8101;BME280;4093;53.470;9.832;2023-02-16T06:41:42;102020.47;;;7.25;85.09
8101;BME280;4093;53.470;9.832;2023-02-16T06:44:11;102029.16;;;7.30;84.99
8101;BME280;4093;53.470;9.832;2023-02-16T06:46:40;102007.34;;;6.61;85.62
8101;BME280;4093;53.470;9.832;2023-02-16T06:49:10;102016.41;;;6.45;87.26
8101;BME280;4093;53.470;9.832;2023-02-16T06:51:38;102016.41;;;6.88;86.17
8101;BME280;4093;53.470;9.832;2023-02-16T06:54:06;102003.88;;;6.59;85.96
8101;BME280;4093;53.470;9.832;2023-02-16T06:56:34;102006.25;;;6.52;87.11
8101;BME280;4093;53.470;9.832;2023-02-16T06:59:05;101947.63;;;6.76;85.96
8101;BME280;4093;53.470;9.832;2023-02-16T07:01:33;101992.44;;;6.90;85.18
8101;BME280;4093;53.470;9.832;2023-02-16T07:04:01;101982.41;;;7.04;84.87
8101;BME280;4093;53.470;9.832;2023-02-16T07:06:29;101978.75;;;6.91;86.47
8101;BME280;4093;53.470;9.832;2023-02-16T07:08:58;101978.75;;;6.91;86.17
8101;BME280;4093;53.470;9.832;2023-02-16T07:11:25;101976.63;;;6.69;86.73
8101;BME280;4093;53.470;9.832;2023-02-16T07:13:53;101980.19;;;6.76;87.30
8101;BME280;4093;53.470;9.832;2023-02-16T07:16:23;101942.75;;;6.43;86.43
8101;BME280;4093;53.470;9.832;2023-02-16T07:18:51;101972.69;;;6.86;87.03
8101;BME280;4093;53.470;9.832;2023-02-16T07:21:18;101982.28;;;6.98;86.76
8101;BME280;4093;53.470;9.832;2023-02-16T07:23:46;101986.06;;;7.18;85.33
8101;BME280;4093;53.470;9.832;2023-02-16T07:26:14;101985.13;;;7.13;86.82
8101;BME280;4093;53.470;9.832;2023-02-16T07:28:42;101979.72;;;6.98;86.09
8101;BME280;4093;53.470;9.832;2023-02-16T07:31:12;101995.59;;;7.24;85.95
8101;BME280;4093;53.470;9.832;2023-02-16T07:33:41;101933.22;;;6.86;85.40
8101;BME280;4093;53.470;9.832;2023-02-16T07:36:10;101994.56;;;7.14;85.59
8101;BME280;4093;53.470;9.832;2023-02-16T07:38:39;101990.22;;;7.10;85.59
8101;BME280;4093;53.470;9.832;2023-02-16T07:41:07;101979.81;;;7.04;86.57
8101;BME280;4093;53.470;9.832;2023-02-16T07:43:36;101976.22;;;6.94;86.95
8101;BME280;4093;53.470;9.832;2023-02-16T07:46:04;101970.44;;;7.08;85.87
8101;BME280;4093;53.470;9.832;2023-02-16T07:48:32;101995.50;;;7.19;85.94
8101;BME280;4093;53.470;9.832;2023-02-16T07:51:01;101990.47;;;7.26;86.66
8101;BME280;4093;53.470;9.832;2023-02-16T07:53:30;101992.44;;;7.42;84.83
8101;BME280;4093;53.470;9.832;2023-02-16T07:55:57;101995.72;;;7.32;85.38
8101;BME280;4093;53.470;9.832;2023-02-16T07:58:25;102001.53;;;7.20;85.60
8101;BME280;4093;53.470;9.832;2023-02-16T08:01:05;102002.56;;;7.31;85.69
8101;BME280;4093;53.470;9.832;2023-02-16T08:03:33;101989.75;;;7.34;86.13
8101;BME280;4093;53.470;9.832;2023-02-16T08:06:03;102001.00;;;7.41;85.41
8101;BME280;4093;53.470;9.832;2023-02-16T08:08:31;101993.91;;;7.25;86.97
8101;BME280;4093;53.470;9.832;2023-02-16T08:10:59;101995.78;;;7.35;85.58
8101;BME280;4093;53.470;9.832;2023-02-16T08:13:27;102004.41;;;7.38;86.10
8101;BME280;4093;53.470;9.832;2023-02-16T08:15:54;101986.22;;;7.28;85.46
8101;BME280;4093;53.470;9.832;2023-02-16T08:18:22;101997.16;;;7.71;84.62
8101;BME280;4093;53.470;9.832;2023-02-16T08:20:50;101988.34;;;7.55;85.92
8101;BME280;4093;53.470;9.832;2023-02-16T08:23:31;101976.28;;;7.49;85.86
8101;BME280;4093;53.470;9.832;2023-02-16T08:25:58;101981.91;;;7.83;84.48
8101;BME280;4093;53.470;9.832;2023-02-16T08:28:35;101986.22;;;7.84;84.42
8101;BME280;4093;53.470;9.832;2023-02-16T08:31:04;101984.81;;;8.07;83.55
8101;BME280;4093;53.470;9.832;2023-02-16T08:33:33;101984.22;;;8.28;82.95
8101;BME280;4093;53.470;9.832;2023-02-16T08:36:02;101978.59;;;7.92;83.67
8101;BME280;4093;53.470;9.832;2023-02-16T08:38:31;101979.97;;;8.30;83.32
8101;BME280;4093;53.470;9.832;2023-02-16T08:40:59;101997.16;;;8.33;82.04
8101;BME280;4093;53.470;9.832;2023-02-16T08:43:28;101985.25;;;8.41;81.69
8101;BME280;4093;53.470;9.832;2023-02-16T08:45:55;101984.41;;;8.41;82.02
8101;BME280;4093;53.470;9.832;2023-02-16T08:48:23;101974.78;;;8.29;81.91
8101;BME280;4093;53.470;9.832;2023-02-16T08:50:54;101974.28;;;7.91;83.80
8101;BME280;4093;53.470;9.832;2023-02-16T08:53:22;101959.63;;;8.53;81.68
8101;BME280;4093;53.470;9.832;2023-02-16T08:55:52;101959.38;;;8.35;82.81
8101;BME280;4093;53.470;9.832;2023-02-16T08:58:21;101962.50;;;8.81;80.76
8101;BME280;4093;53.470;9.832;2023-02-16T09:00:49;101965.94;;;8.82;81.32
8101;BME280;4093;53.470;9.832;2023-02-16T09:03:17;101957.91;;;8.52;81.64
8101;BME280;4093;53.470;9.832;2023-02-16T09:05:46;101953.06;;;8.10;82.22
8101;BME280;4093;53.470;9.832;2023-02-16T09:08:14;101978.75;;;8.77;80.82
8101;BME280;4093;53.470;9.832;2023-02-16T09:10:42;101987.81;;;9.26;79.35
8101;BME280;4093;53.470;9.832;2023-02-16T09:13:11;101973.63;;;8.80;80.29
8101;BME280;4093;53.470;9.832;2023-02-16T09:15:41;101972.47;;;9.43;79.24
8101;BME280;4093;53.470;9.832;2023-02-16T09:18:09;101954.06;;;9.02;78.84
8101;BME280;4093;53.470;9.832;2023-02-16T09:20:39;101965.28;;;9.04;79.56
8101;BME280;4093;53.470;9.832;2023-02-16T09:23:08;101971.44;;;9.23;79.50
8101;BME280;4093;53.470;9.832;2023-02-16T09:25:39;101960.78;;;8.82;80.46
8101;BME280;4093;53.470;9.832;2023-02-16T09:28:07;101987.44;;;8.85;80.51
8101;BME280;4093;53.470;9.832;2023-02-16T09:30:37;101996.19;;;8.99;81.09
8101;BME280;4093;53.470;9.832;2023-02-16T09:33:05;101980.78;;;9.09;80.69
8101;BME280;4093;53.470;9.832;2023-02-16T09:35:33;101989.50;;;9.21;79.79
8101;BME280;4093;53.470;9.832;2023-02-16T09:38:00;102000.69;;;9.22;79.22
8101;BME280;4093;53.470;9.832;2023-02-16T09:40:29;102004.75;;;8.95;81.31
8101;BME280;4093;53.470;9.832;2023-02-16T09:43:03;102004.19;;;9.29;79.76
8101;BME280;4093;53.470;9.832;2023-02-16T09:45:38;102005.09;;;9.35;79.89
8101;BME280;4093;53.470;9.832;2023-02-16T09:48:16;102006.09;;;9.56;79.46
8101;BME280;4093;53.470;9.832;2023-02-16T09:50:48;101999.53;;;8.89;81.38
8101;BME280;4093;53.470;9.832;2023-02-16T09:53:23;102007.91;;;9.67;80.40
8101;BME280;4093;53.470;9.832;2023-02-16T09:56:01;102000.28;;;9.84;78.85
8101;BME280;4093;53.470;9.832;2023-02-16T09:58:37;102001.31;;;10.17;78.19
8101;BME280;4093;53.470;9.832;2023-02-16T10:01:16;102000.34;;;9.95;78.14
8101;BME280;4093;53.470;9.832;2023-02-16T10:03:52;102001.16;;;9.89;79.23
8101;BME280;4093;53.470;9.832;2023-02-16T10:06:35;102013.47;;;10.33;78.15
8101;BME280;4093;53.470;9.832;2023-02-16T10:09:10;102003.91;;;10.20;78.52
8101;BME280;4093;53.470;9.832;2023-02-16T10:11:41;101987.47;;;10.09;78.41
8101;BME280;4093;53.470;9.832;2023-02-16T10:14:21;102005.78;;;10.55;78.56
8101;BME280;4093;53.470;9.832;2023-02-16T10:16:56;102000.38;;;10.06;81.44
8101;BME280;4093;53.470;9.832;2023-02-16T10:19:31;101998.75;;;10.23;82.10
8101;BME280;4093;53.470;9.832;2023-02-16T10:22:05;102005.72;;;10.29;80.96
8101;BME280;4093;53.470;9.832;2023-02-16T10:24:40;102015.06;;;10.10;82.49
8101;BME280;4093;53.470;9.832;2023-02-16T10:27:14;102007.44;;;10.30;82.49
8101;BME280;4093;53.470;9.832;2023-02-16T10:29:42;102004.03;;;10.38;82.51
8101;BME280;4093;53.470;9.832;2023-02-16T10:32:20;102009.91;;;10.14;83.69
8101;BME280;4093;53.470;9.832;2023-02-16T10:34:51;102011.78;;;10.35;82.78
8101;BME280;4093;53.470;9.832;2023-02-16T10:37:38;102013.59;;;10.75;81.62
8101;BME280;4093;53.470;9.832;2023-02-16T10:40:19;102002.41;;;10.77;81.89
8101;BME280;4093;53.470;9.832;2023-02-16T10:42:53;102001.50;;;10.58;81.70
8101;BME280;4093;53.470;9.832;2023-02-16T10:45:26;102005.84;;;10.70;81.20
8101;BME280;4093;53.470;9.832;2023-02-16T10:47:58;102015.31;;;10.67;81.78
8101;BME280;4093;53.470;9.832;2023-02-16T10:50:30;102017.94;;;10.83;81.56
8101;BME280;4093;53.470;9.832;2023-02-16T10:53:00;102014.44;;;10.68;81.22
8101;BME280;4093;53.470;9.832;2023-02-16T10:55:28;102017.94;;;10.73;80.99
8101;BME280;4093;53.470;9.832;2023-02-16T10:57:58;102007.63;;;10.85;80.47
8101;BME280;4093;53.470;9.832;2023-02-16T11:00:37;102014.47;;;10.63;82.27
8101;BME280;4093;53.470;9.832;2023-02-16T11:03:13;102000.69;;;10.76;80.53
8101;BME280;4093;53.470;9.832;2023-02-16T11:05:42;102009.38;;;11.27;79.74
8101;BME280;4093;53.470;9.832;2023-02-16T11:08:10;102016.25;;;11.47;78.67
8101;BME280;4093;53.470;9.832;2023-02-16T11:10:42;102009.31;;;10.80;79.69
8101;BME280;4093;53.470;9.832;2023-02-16T11:13:24;102012.72;;;10.63;80.58
8101;BME280;4093;53.470;9.832;2023-02-16T11:15:56;102004.16;;;11.03;80.66
8101;BME280;4093;53.470;9.832;2023-02-16T11:18:31;101981.66;;;10.56;80.73
8101;BME280;4093;53.470;9.832;2023-02-16T11:21:00;102005.03;;;10.96;80.01
8101;BME280;4093;53.470;9.832;2023-02-16T11:23:31;102002.44;;;10.99;79.93
8101;BME280;4093;53.470;9.832;2023-02-16T11:26:05;101997.16;;;10.47;81.61
8101;BME280;4093;53.470;9.832;2023-02-16T11:28:36;101999.88;;;10.94;79.77
8101;BME280;4093;53.470;9.832;2023-02-16T11:31:11;101992.06;;;10.86;80.80
8101;BME280;4093;53.470;9.832;2023-02-16T11:33:52;101995.50;;;10.73;80.88
8101;BME280;4093;53.470;9.832;2023-02-16T11:36:26;101998.06;;;10.64;81.33
8101;BME280;4093;53.470;9.832;2023-02-16T11:38:58;102005.00;;;10.77;80.60
8101;BME280;4093;53.470;9.832;2023-02-16T11:41:28;101992.97;;;10.98;80.16
8101;BME280;4093;53.470;9.832;2023-02-16T11:43:59;101988.66;;;10.87;81.06
8101;BME280;4093;53.470;9.832;2023-02-16T11:46:37;101989.50;;;11.05;80.06
8101;BME280;4093;53.470;9.832;2023-02-16T11:49:29;101990.34;;;10.81;80.78
8101;BME280;4093;53.470;9.832;2023-02-16T11:51:58;101981.66;;;10.53;81.78
8101;BME280;4093;53.470;9.832;2023-02-16T11:54:25;101995.50;;;10.65;81.43
8101;BME280;4093;53.470;9.832;2023-02-16T11:57:01;101995.53;;;10.92;81.14
8101;BME280;4093;53.470;9.832;2023-02-16T11:59:34;101992.94;;;11.02;80.39
8101;BME280;4093;53.470;9.832;2023-02-16T12:02:21;101990.38;;;10.98;81.46
8101;BME280;4093;53.470;9.832;2023-02-16T12:05:08;101986.81;;;10.53;82.53
8101;BME280;4093;53.470;9.832;2023-02-16T12:07:44;101991.25;;;10.98;80.39
8101;BME280;4093;53.470;9.832;2023-02-16T12:10:24;101985.19;;;10.88;81.17
8101;BME280;4093;53.470;9.832;2023-02-16T12:12:59;101984.25;;;10.59;82.75
8101;BME280;4093;53.470;9.832;2023-02-16T12:15:34;101984.25;;;10.51;83.21
8101;BME280;4093;53.470;9.832;2023-02-16T12:18:16;101982.50;;;10.46;84.54
8101;BME280;4093;53.470;9.832;2023-02-16T12:20:52;101993.72;;;10.48;85.29
8101;BME280;4093;53.470;9.832;2023-02-16T12:23:36;101985.09;;;10.49;85.02
8101;BME280;4093;53.470;9.832;2023-02-16T12:26:27;101992.94;;;10.79;83.60
8101;BME280;4093;53.470;9.832;2023-02-16T12:29:08;101975.69;;;10.72;83.67
8101;BME280;4093;53.470;9.832;2023-02-16T12:31:51;101979.13;;;10.74;83.63
8101;BME280;4093;53.470;9.832;2023-02-16T12:34:26;101980.00;;;10.76;82.87
8101;BME280;4093;53.470;9.832;2023-02-16T12:37:03;101979.03;;;10.42;84.35
8101;BME280;4093;53.470;9.832;2023-02-16T12:39:43;101977.34;;;10.58;84.33
8101;BME280;4093;53.470;9.832;2023-02-16T12:42:31;101969.66;;;11.05;82.45
8101;BME280;4093;53.470;9.832;2023-02-16T12:45:08;101961.03;;;11.23;82.02
8101;BME280;4093;53.470;9.832;2023-02-16T12:47:40;101955.88;;;11.08;81.91
8101;BME280;4093;53.470;9.832;2023-02-16T12:50:17;101944.66;;;11.23;82.25
8101;BME280;4093;53.470;9.832;2023-02-16T12:52:50;101946.34;;;11.39;81.63
8101;BME280;4093;53.470;9.832;2023-02-16T12:55:22;101935.16;;;10.94;84.54
8101;BME280;4093;53.470;9.832;2023-02-16T12:57:56;101937.75;;;11.26;83.19
8101;BME280;4093;53.470;9.832;2023-02-16T13:00:39;101942.84;;;10.48;86.94
8101;BME280;4093;53.470;9.832;2023-02-16T13:03:19;101948.94;;;10.79;86.10
8101;BME280;4093;53.470;9.832;2023-02-16T13:05:57;101943.78;;;11.15;86.08
8101;BME280;4093;53.470;9.832;2023-02-16T13:08:32;101937.75;;;10.76;86.17
8101;BME280;4093;53.470;9.832;2023-02-16T13:11:10;101943.78;;;11.19;85.17
8101;BME280;4093;53.470;9.832;2023-02-16T13:13:42;101944.66;;;10.92;86.95
8101;BME280;4093;53.470;9.832;2023-02-16T13:16:14;101937.75;;;10.76;87.25
8101;BME280;4093;53.470;9.832;2023-02-16T13:18:56;101911.84;;;10.83;86.39
8101;BME280;4093;53.470;9.832;2023-02-16T13:21:48;101933.41;;;10.87;87.07
8101;BME280;4093;53.470;9.832;2023-02-16T13:24:34;101921.34;;;11.18;86.69
8101;BME280;4093;53.470;9.832;2023-02-16T13:27:21;101917.91;;;11.10;87.69
8101;BME280;4093;53.470;9.832;2023-02-16T13:30:00;101923.09;;;10.95;88.89
8101;BME280;4093;53.470;9.832;2023-02-16T13:32:58;101914.47;;;10.82;90.01
8101;BME280;4093;53.470;9.832;2023-02-16T13:35:55;101893.72;;;10.44;90.57
8101;BME280;4093;53.470;9.832;2023-02-16T13:38:47;101904.97;;;11.13;89.49
8101;BME280;4093;53.470;9.832;2023-02-16T13:41:39;101907.56;;;10.95;89.59
8101;BME280;4093;53.470;9.832;2023-02-16T13:44:09;101906.69;;;11.14;88.41
8101;BME280;4093;53.470;9.832;2023-02-16T13:46:42;101898.88;;;11.37;87.53
8101;BME280;4093;53.470;9.832;2023-02-16T13:49:29;101909.19;;;11.69;87.33
8101;BME280;4093;53.470;9.832;2023-02-16T13:51:58;101902.28;;;11.59;86.35
8101;BME280;4093;53.470;9.832;2023-02-16T13:54:29;101904.03;;;11.43;86.94
8101;BME280;4093;53.470;9.832;2023-02-16T13:56:59;101908.38;;;11.43;86.83
8101;BME280;4093;53.470;9.832;2023-02-16T13:59:57;101907.53;;;11.31;87.73
8101;BME280;4093;53.470;9.832;2023-02-16T14:02:51;101898.03;;;11.26;87.38